Time;durP1;ratioP1;P1;durP2;ratioP2;P2;SDS_P1;SDS_P2;PMS_P1;PMS_P2;Temp;Humidity;BMP_temperature;BMP_pressure;BME280_temperature;BME280_humidity;BME280_pressure;Samples;Min_cycle;Max_cycle;Signal;HPM_P1;HPM_P2
2023/09/18 00:01:26;;;;;;;10.45;5.53;;;;;;;17.23;100.00;92907.03;5058269;28;20477;-81
2023/09/18 00:03:52;;;;;;;11.57;4.95;;;;;;;17.23;100.00;92893.81;5057603;28;20104;-81
2023/09/18 00:06:17;;;;;;;14.43;5.53;;;;;;;17.20;100.00;92907.69;5058532;28;20161;-80
2023/09/18 00:08:43;;;;;;;13.73;5.47;;;;;;;17.19;100.00;92914.06;5059192;28;20048;-80
2023/09/18 00:11:09;;;;;;;12.57;5.32;;;;;;;17.18;100.00;92912.50;5058431;28;20400;-80
2023/09/18 00:13:35;;;;;;;11.40;5.47;;;;;;;17.17;100.00;92900.38;5058006;28;20041;-79
2023/09/18 00:16:01;;;;;;;13.65;5.40;;;;;;;17.16;100.00;92898.06;5052363;28;20033;-80
2023/09/18 00:18:26;;;;;;;11.38;5.22;;;;;;;17.16;100.00;92896.19;5057617;28;20029;-81
2023/09/18 00:20:52;;;;;;;16.38;5.53;;;;;;;17.15;100.00;92888.56;5057495;28;20037;-80
2023/09/18 00:23:17;;;;;;;13.32;5.57;;;;;;;17.12;100.00;92887.31;5057892;28;20041;-81
2023/09/18 00:25:43;;;;;;;10.57;5.43;;;;;;;17.13;100.00;92877.50;5058716;28;20102;-81
2023/09/18 00:28:08;;;;;;;11.32;4.93;;;;;;;17.12;100.00;92887.31;5057862;28;20061;-81
2023/09/18 00:30:34;;;;;;;16.45;5.32;;;;;;;17.11;100.00;92885.75;5058354;28;20456;-80
2023/09/18 00:33:00;;;;;;;11.60;4.78;;;;;;;17.10;100.00;92880.78;5057472;28;20037;-80
2023/09/18 00:35:25;;;;;;;13.45;5.30;;;;;;;17.11;100.00;92874.41;5057526;28;20033;-80
2023/09/18 00:37:51;;;;;;;14.10;4.97;;;;;;;17.10;100.00;92868.34;5057355;28;20232;-80
2023/09/18 00:40:17;;;;;;;10.25;5.20;;;;;;;17.10;100.00;92860.41;5057415;28;20100;-81
2023/09/18 00:42:42;;;;;;;13.05;5.18;;;;;;;17.11;100.00;92848.72;5055906;28;20496;-81
2023/09/18 00:45:09;;;;;;;8.55;5.03;;;;;;;17.13;100.00;92840.47;5058344;28;20025;-81
2023/09/18 00:47:36;;;;;;;11.82;5.10;;;;;;;17.12;100.00;92834.41;5055736;28;20037;-80
2023/09/18 00:50:04;;;;;;;16.23;5.88;;;;;;;17.16;100.00;92837.97;5057041;28;20064;-80
2023/09/18 00:52:29;;;;;;;14.15;5.78;;;;;;;17.19;100.00;92826.75;5058069;28;20488;-80
2023/09/18 00:54:55;;;;;;;9.13;5.28;;;;;;;17.18;100.00;92824.41;5057518;28;20086;-80
2023/09/18 00:57:21;;;;;;;16.27;5.47;;;;;;;17.16;100.00;92819.47;5055511;28;20045;-80
2023/09/18 00:59:47;;;;;;;15.15;5.40;;;;;;;17.11;100.00;92811.69;5056636;28;20072;-81
2023/09/18 01:02:13;;;;;;;13.88;5.10;;;;;;;17.11;100.00;92810.91;5057556;28;20454;-80
2023/09/18 01:04:43;;;;;;;10.35;5.40;;;;;;;17.09;100.00;92808.63;5056123;28;20029;-81
2023/09/18 01:07:09;;;;;;;21.77;5.35;;;;;;;17.07;100.00;92813.44;5057133;28;20032;-81
2023/09/18 01:09:35;;;;;;;13.82;5.68;;;;;;;17.05;100.00;92813.75;5057300;28;20081;-81
2023/09/18 01:12:18;;;;;;;13.60;5.40;;;;;;;17.02;100.00;92811.75;5057229;28;20056;-81
2023/09/18 01:14:59;;;;;;;16.25;5.22;;;;;;;17.02;100.00;92818.88;5036093;28;20060;-80
2023/09/18 01:17:26;;;;;;;13.77;4.80;;;;;;;16.98;100.00;92813.47;5053591;28;20090;-80
2023/09/18 01:19:51;;;;;;;11.38;4.95;;;;;;;16.97;100.00;92816.44;5057364;28;20028;-81
2023/09/18 01:22:19;;;;;;;11.60;5.13;;;;;;;16.97;100.00;92821.72;5055857;28;20098;-80
2023/09/18 01:24:49;;;;;;;14.95;5.72;;;;;;;16.97;100.00;92822.50;5055188;28;20064;-80
2023/09/18 01:27:17;;;;;;;9.95;5.53;;;;;;;16.99;100.00;92817.66;5055724;28;20140;-80
2023/09/18 01:29:44;;;;;;;10.50;5.25;;;;;;;17.01;100.00;92817.34;5055399;28;20115;-80
2023/09/18 01:32:09;;;;;;;12.32;5.00;;;;;;;17.02;100.00;92805.66;5023093;28;20033;-81
2023/09/18 01:34:39;;;;;;;12.40;5.25;;;;;;;17.02;100.00;92793.25;5055853;28;20095;-81
2023/09/18 01:37:07;;;;;;;10.95;5.30;;;;;;;17.04;100.00;92780.47;5055800;28;20029;-81
2023/09/18 01:39:34;;;;;;;15.45;5.28;;;;;;;17.05;100.00;92768.03;5039286;28;20092;-81
2023/09/18 01:42:02;;;;;;;8.80;5.22;;;;;;;17.06;100.00;92761.63;5057084;28;20039;-81
2023/09/18 01:44:28;;;;;;;12.95;5.47;;;;;;;17.06;100.00;92759.75;5054943;28;20155;-81
2023/09/18 01:46:57;;;;;;;11.98;5.50;;;;;;;17.05;100.00;92768.03;5055710;28;20036;-81
2023/09/18 01:49:32;;;;;;;14.50;5.22;;;;;;;16.98;100.00;92762.47;5057543;28;20021;-81
2023/09/18 01:51:58;;;;;;;9.85;4.97;;;;;;;16.97;100.00;92758.25;5038520;28;20496;-80
2023/09/18 01:54:24;;;;;;;12.20;5.18;;;;;;;16.94;100.00;92766.84;5056683;28;20024;-81
2023/09/18 01:56:53;;;;;;;10.38;4.85;;;;;;;16.90;100.00;92755.34;5055352;28;20056;-81
2023/09/18 01:59:19;;;;;;;9.77;5.22;;;;;;;16.90;100.00;92763.28;5047489;28;20048;-81
2023/09/18 02:01:45;;;;;;;12.00;5.63;;;;;;;16.91;100.00;92767.44;5055202;28;20087;-81
2023/09/18 02:04:10;;;;;;;22.50;5.22;;;;;;;16.91;100.00;92767.44;5056172;28;20104;-80
2023/09/18 02:06:36;;;;;;;18.92;5.57;;;;;;;16.90;100.00;92753.47;5056708;28;20110;-79
2023/09/18 02:09:03;;;;;;;13.05;5.78;;;;;;;16.90;100.00;92748.19;5056337;28;20037;-80
2023/09/18 02:11:29;;;;;;;12.13;4.93;;;;;;;16.89;100.00;92741.34;5055529;28;20037;-80
2023/09/18 02:13:56;;;;;;;14.50;5.95;;;;;;;16.89;100.00;92732.63;5056735;28;20029;-81
2023/09/18 02:16:22;;;;;;;14.77;5.78;;;;;;;16.90;100.00;92732.31;5052298;28;20037;-80
2023/09/18 02:18:48;;;;;;;12.98;5.32;;;;;;;16.89;100.00;92727.34;5049173;28;20422;-80
2023/09/18 02:21:23;;;;;;;12.80;5.40;;;;;;;16.89;100.00;92727.34;5056797;28;20067;-80
2023/09/18 02:23:51;;;;;;;13.30;5.00;;;;;;;16.88;100.00;92731.09;5047714;28;20051;-81
2023/09/18 02:26:17;;;;;;;13.25;5.45;;;;;;;16.87;100.00;92732.97;5055103;28;20025;-80
2023/09/18 02:28:43;;;;;;;10.73;5.43;;;;;;;16.85;100.00;92735.91;5056451;28;20029;-81
2023/09/18 02:31:09;;;;;;;12.77;5.13;;;;;;;16.85;100.00;92735.91;5055737;28;20071;-81
2023/09/18 02:33:34;;;;;;;10.93;5.55;;;;;;;16.82;100.00;92735.78;5056357;28;20041;-80
2023/09/18 02:36:00;;;;;;;10.38;5.55;;;;;;;16.79;100.00;92742.47;5056851;28;20090;-80
2023/09/18 02:38:27;;;;;;;12.15;5.82;;;;;;;16.75;100.00;92746.81;5055695;28;20044;-81
2023/09/18 02:40:53;;;;;;;13.23;5.63;;;;;;;16.76;100.00;92748.38;5055983;28;20041;-81
2023/09/18 02:43:21;;;;;;;11.18;5.68;;;;;;;16.75;100.00;92740.75;5055056;28;20036;-80
2023/09/18 02:45:46;;;;;;;12.20;5.03;;;;;;;16.75;100.00;92725.69;5055329;28;20040;-81
2023/09/18 02:48:12;;;;;;;18.13;5.57;;;;;;;16.76;100.00;92731.75;5054782;28;20036;-80
2023/09/18 02:50:37;;;;;;;12.13;5.22;;;;;;;16.77;100.00;92734.03;5055903;28;20392;-80
2023/09/18 02:53:06;;;;;;;12.18;5.60;;;;;;;16.76;100.00;92737.78;5038320;28;20036;-80
2023/09/18 02:55:32;;;;;;;12.15;5.13;;;;;;;16.78;100.00;92738.25;5054322;28;20519;-80
2023/09/18 02:57:58;;;;;;;9.10;5.22;;;;;;;16.78;100.00;92740.91;5055059;28;20045;-81
2023/09/18 03:00:24;;;;;;;9.90;5.05;;;;;;;16.73;100.00;92738.44;5054846;28;20029;-81
2023/09/18 03:02:50;;;;;;;14.07;5.35;;;;;;;16.70;100.00;92741.69;5056155;28;20476;-81
2023/09/18 03:05:15;;;;;;;16.60;6.00;;;;;;;16.63;100.00;92744.06;5055980;28;20051;-81
2023/09/18 03:07:41;;;;;;;11.73;5.35;;;;;;;16.58;100.00;92739.72;5054010;28;20033;-81
2023/09/18 03:10:07;;;;;;;11.40;5.75;;;;;;;16.55;100.00;92729.81;5054829;28;20029;-80
2023/09/18 03:12:33;;;;;;;12.73;5.63;;;;;;;16.60;100.00;92736.78;5051297;28;20487;-80
2023/09/18 03:14:59;;;;;;;11.85;5.68;;;;;;;16.61;100.00;92746.25;5055033;28;20032;-81
2023/09/18 03:17:25;;;;;;;12.18;5.68;;;;;;;16.61;100.00;92743.59;5056341;28;20033;-81
2023/09/18 03:19:51;;;;;;;15.27;5.93;;;;;;;16.59;100.00;92732.56;5054336;28;20119;-80
2023/09/18 03:22:17;;;;;;;15.63;5.72;;;;;;;16.58;100.00;92723.09;5057820;28;20049;-80
2023/09/18 03:24:43;;;;;;;11.27;5.82;;;;;;;16.57;100.00;92721.53;5058279;28;20029;-80
2023/09/18 03:27:08;;;;;;;13.85;5.18;;;;;;;16.55;100.00;92711.31;5057606;28;20389;-80
2023/09/18 03:29:34;;;;;;;13.43;5.20;;;;;;;16.55;100.00;92706.03;5042681;28;20469;-80
2023/09/18 03:32:00;;;;;;;10.85;5.85;;;;;;;16.54;100.00;92701.81;5058539;28;20037;-80
2023/09/18 03:34:28;;;;;;;8.70;5.50;;;;;;;16.53;100.00;92715.38;5058101;28;20033;-81
2023/09/18 03:36:54;;;;;;;9.50;5.70;;;;;;;16.52;100.00;92703.22;5059694;28;20060;-79
2023/09/18 03:39:20;;;;;;;17.15;6.53;;;;;;;16.50;100.00;92697.47;5059530;28;20488;-80
2023/09/18 03:41:45;;;;;;;10.32;5.28;;;;;;;16.52;100.00;92690.78;5057735;28;20036;-80
2023/09/18 03:44:11;;;;;;;14.70;5.80;;;;;;;16.54;100.00;92693.88;5059026;28;20035;-80
2023/09/18 03:46:37;;;;;;;17.13;6.07;;;;;;;16.52;100.00;92690.00;5057668;28;20554;-80
2023/09/18 03:49:02;;;;;;;13.95;5.82;;;;;;;16.52;100.00;92688.13;5038006;28;20523;-80
2023/09/18 03:51:31;;;;;;;14.75;6.07;;;;;;;16.48;100.00;92683.81;5056775;28;20510;-80
2023/09/18 03:53:56;;;;;;;9.63;5.75;;;;;;;16.43;100.00;92666.25;5057869;28;20037;-79
2023/09/18 03:56:22;;;;;;;15.85;6.15;;;;;;;16.44;100.00;92671.25;5056931;28;20057;-80
2023/09/18 03:58:49;;;;;;;13.68;6.32;;;;;;;16.46;100.00;92665.66;5058268;28;20045;-80
2023/09/18 04:01:18;;;;;;;20.98;6.13;;;;;;;16.44;100.00;92657.25;5057321;28;20043;-80
2023/09/18 04:03:43;;;;;;;13.82;6.28;;;;;;;16.48;100.00;92662.66;5040741;28;20029;-81
2023/09/18 04:06:09;;;;;;;13.90;5.97;;;;;;;16.45;100.00;92661.44;5057173;28;20041;-81
2023/09/18 04:08:35;;;;;;;10.68;5.47;;;;;;;16.42;100.00;92665.50;5036895;28;20104;-80
2023/09/18 04:11:01;;;;;;;11.05;5.70;;;;;;;16.42;100.00;92670.78;5068873;28;20408;-81
2023/09/18 04:13:26;;;;;;;10.98;6.00;;;;;;;16.42;100.00;92670.78;5073791;28;20159;-81
2023/09/18 04:15:56;;;;;;;13.38;5.95;;;;;;;16.42;100.00;92678.72;5057254;28;20037;-80
2023/09/18 04:18:23;;;;;;;14.50;6.00;;;;;;;16.31;100.00;92689.94;5040803;28;20570;-79
2023/09/18 04:20:51;;;;;;;15.02;6.40;;;;;;;16.15;100.00;92687.03;5040919;28;20044;-80
2023/09/18 04:23:19;;;;;;;14.00;6.32;;;;;;;16.14;100.00;92680.97;5057170;28;20033;-79
2023/09/18 04:25:46;;;;;;;13.82;6.35;;;;;;;16.14;100.00;92680.19;5056947;28;20045;-80
2023/09/18 04:28:13;;;;;;;21.75;7.68;;;;;;;16.01;100.00;92674.81;5057657;28;20033;-79
2023/09/18 04:30:38;;;;;;;13.32;6.90;;;;;;;15.92;100.00;92681.19;5055288;28;20064;-79
2023/09/18 04:33:04;;;;;;;19.70;8.13;;;;;;;15.90;100.00;92686.78;5071823;28;20093;-81
2023/09/18 04:35:31;;;;;;;12.65;7.25;;;;;;;15.87;100.00;92679.47;5054894;28;20067;-80
2023/09/18 04:37:59;;;;;;;14.05;6.45;;;;;;;15.89;100.00;92674.66;5057745;28;20037;-81
2023/09/18 04:40:26;;;;;;;11.75;6.40;;;;;;;15.91;100.00;92677.00;5054844;28;20047;-81
2023/09/18 04:42:52;;;;;;;10.40;5.80;;;;;;;15.91;100.00;92677.78;5056847;28;20029;-80
2023/09/18 04:45:18;;;;;;;12.82;6.22;;;;;;;15.94;100.00;92676.38;5064741;28;20033;-81
2023/09/18 04:47:44;;;;;;;12.07;5.90;;;;;;;15.97;100.00;92671.25;5055355;28;20055;-80
2023/09/18 04:50:10;;;;;;;9.30;4.93;;;;;;;15.96;100.00;92674.19;5054306;28;20052;-80
2023/09/18 04:52:36;;;;;;;10.43;4.95;;;;;;;15.95;100.00;92683.22;5036721;28;20052;-81
2023/09/18 04:55:03;;;;;;;9.48;4.40;;;;;;;15.93;100.00;92675.59;5054970;28;20048;-80
2023/09/18 04:57:28;;;;;;;7.65;4.40;;;;;;;15.94;100.00;92671.88;5038604;28;20115;-81
2023/09/18 04:59:54;;;;;;;6.60;3.58;;;;;;;15.92;100.00;92657.41;5054925;28;20041;-82
2023/09/18 05:02:20;;;;;;;7.13;3.95;;;;;;;15.94;100.00;92665.81;5059074;28;20036;-82
2023/09/18 05:04:45;;;;;;;6.15;3.55;;;;;;;15.93;100.00;92664.25;5074898;28;20075;-82
2023/09/18 05:07:11;;;;;;;6.30;3.65;;;;;;;15.91;100.00;92656.66;5055059;28;20135;-83
2023/09/18 05:09:38;;;;;;;6.03;3.72;;;;;;;15.94;100.00;92660.53;5059874;28;20052;-81
2023/09/18 05:12:04;;;;;;;6.55;4.07;;;;;;;15.96;100.00;92655.72;5061093;28;20067;-82
2023/09/18 05:14:30;;;;;;;6.63;4.25;;;;;;;15.97;100.00;92654.63;5061342;28;20033;-82
2023/09/18 05:16:56;;;;;;;12.05;4.90;;;;;;;15.97;100.00;92665.19;5059105;28;20055;-81
2023/09/18 05:19:21;;;;;;;7.35;4.82;;;;;;;15.97;100.00;92659.91;5064947;28;20613;-81
2023/09/18 05:21:48;;;;;;;14.68;5.72;;;;;;;15.95;100.00;92654.94;5058360;28;20043;-83
2023/09/18 05:24:13;;;;;;;10.75;5.55;;;;;;;15.95;100.00;92647.03;5057605;28;20037;-82
2023/09/18 05:26:40;;;;;;;10.35;5.38;;;;;;;15.97;100.00;92650.13;5057175;28;20056;-82
2023/09/18 05:29:05;;;;;;;8.20;5.30;;;;;;;16.01;100.00;92647.63;5055280;28;20033;-82
2023/09/18 05:31:31;;;;;;;12.73;5.97;;;;;;;15.99;100.00;92645.31;5055772;28;20029;-83
2023/09/18 05:33:56;;;;;;;11.35;5.68;;;;;;;15.99;100.00;92637.38;5061208;28;20436;-80
2023/09/18 05:36:22;;;;;;;9.95;5.75;;;;;;;16.00;100.00;92625.72;5056636;28;20431;-82
2023/09/18 05:38:48;;;;;;;12.02;7.07;;;;;;;16.00;100.00;92623.06;5056300;28;20377;-82
2023/09/18 05:41:13;;;;;;;12.27;6.85;;;;;;;16.02;100.00;92625.41;5055509;28;20033;-81
2023/09/18 05:43:39;;;;;;;16.30;6.85;;;;;;;16.01;100.00;92635.22;5055826;28;20029;-82
2023/09/18 05:46:04;;;;;;;17.98;6.45;;;;;;;16.12;100.00;92635.63;5051794;28;20115;-81
2023/09/18 05:48:31;;;;;;;12.90;7.55;;;;;;;16.07;100.00;92638.44;5055381;28;20033;-80
2023/09/18 05:50:56;;;;;;;14.65;8.05;;;;;;;15.96;100.00;92642.50;5055057;28;20029;-81
2023/09/18 05:53:22;;;;;;;13.18;7.40;;;;;;;15.91;100.00;92638.16;5054807;28;20037;-79
2023/09/18 05:55:48;;;;;;;17.13;8.07;;;;;;;15.90;100.00;92631.34;5053080;28;20139;-81
2023/09/18 05:58:14;;;;;;;16.60;8.75;;;;;;;15.92;100.00;92631.81;5054733;28;20481;-80
2023/09/18 06:00:39;;;;;;;14.25;8.40;;;;;;;15.93;100.00;92619.38;5054128;28;20040;-83
2023/09/18 06:03:06;;;;;;;15.90;8.15;;;;;;;15.97;100.00;92620.31;5052899;28;20043;-83
2023/09/18 06:05:33;;;;;;;16.60;8.70;;;;;;;15.97;100.00;92607.13;5052250;28;20029;-84
2023/09/18 06:08:00;;;;;;;20.05;9.13;;;;;;;15.98;100.00;92598.09;5052029;28;20496;-84
2023/09/18 06:10:25;;;;;;;18.92;10.40;;;;;;;16.00;100.00;92601.19;5055079;28;20043;-83
2023/09/18 06:12:51;;;;;;;16.27;10.10;;;;;;;16.01;100.00;92595.59;5054864;28;20033;-85
2023/09/18 06:15:17;;;;;;;20.15;10.05;;;;;;;15.99;100.00;92589.84;5054621;28;20029;-83
2023/09/18 06:17:43;;;;;;;17.17;9.77;;;;;;;16.05;100.00;92587.03;5051952;28;20175;-82
2023/09/18 06:20:12;;;;;;;17.15;9.43;;;;;;;16.05;100.00;92581.75;5035048;28;20036;-84
2023/09/18 06:22:39;;;;;;;29.88;11.20;;;;;;;16.05;100.00;92569.31;5053047;28;20028;-84
2023/09/18 06:25:06;;;;;;;21.38;11.82;;;;;;;16.08;100.00;92570.56;5046587;28;20503;-84
2023/09/18 06:27:35;;;;;;;22.30;11.52;;;;;;;16.08;100.00;92566.06;5053116;28;20392;-83
2023/09/18 06:30:00;;;;;;;23.63;11.50;;;;;;;16.09;100.00;92562.31;5053375;28;20396;-82
2023/09/18 06:32:26;;;;;;;18.05;11.93;;;;;;;16.08;100.00;92560.78;5053439;28;20030;-84
2023/09/18 06:34:51;;;;;;;21.10;11.15;;;;;;;16.10;100.00;92550.69;5053754;28;20489;-84
2023/09/18 06:37:18;;;;;;;18.80;11.25;;;;;;;16.14;100.00;92554.22;5050108;28;20569;-81
2023/09/18 06:39:44;;;;;;;19.83;11.90;;;;;;;16.13;100.00;92546.63;5051451;28;20076;-80
2023/09/18 06:42:09;;;;;;;20.45;12.20;;;;;;;16.13;100.00;92536.06;5053337;28;20507;-82
2023/09/18 06:44:35;;;;;;;22.13;11.20;;;;;;;16.21;100.00;92540.50;5052224;28;20009;-83
2023/09/18 06:47:00;;;;;;;23.63;12.77;;;;;;;16.16;100.00;92532.78;5049989;28;20033;-84
2023/09/18 06:49:27;;;;;;;21.20;12.00;;;;;;;16.07;100.00;92537.31;5052574;28;20120;-80
2023/09/18 06:51:52;;;;;;;20.52;11.88;;;;;;;16.07;100.00;92535.47;5053437;28;20159;-79
2023/09/18 06:54:18;;;;;;;23.33;11.75;;;;;;;16.03;100.00;92532.69;5047174;28;20025;-82
2023/09/18 06:56:44;;;;;;;19.30;11.32;;;;;;;16.16;100.00;92541.47;5057958;28;20084;-78
2023/09/18 06:59:11;;;;;;;21.67;13.70;;;;;;;16.11;100.00;92538.25;5074667;28;20492;-78
2023/09/18 07:01:37;;;;;;;30.60;14.55;;;;;;;16.13;100.00;92536.06;5079890;28;20032;-79
2023/09/18 07:04:04;;;;;;;28.55;16.52;;;;;;;16.11;100.00;92535.59;5079218;28;20468;-79
2023/09/18 07:06:30;;;;;;;28.63;16.98;;;;;;;16.08;100.00;92525.69;5078073;28;20033;-78
2023/09/18 07:08:56;;;;;;;30.13;17.35;;;;;;;16.09;100.00;92537.78;5079002;28;20036;-78
2023/09/18 07:11:21;;;;;;;33.70;16.85;;;;;;;16.10;100.00;92544.59;5078277;28;20055;-78
2023/09/18 07:13:47;;;;;;;40.40;20.60;;;;;;;16.08;100.00;92538.91;5077673;28;20056;-78
2023/09/18 07:16:13;;;;;;;34.08;17.13;;;;;;;16.07;100.00;92548.66;5078667;28;20041;-78
2023/09/18 07:18:39;;;;;;;51.05;26.48;;;;;;;16.21;100.00;92549.22;5079260;28;20033;-78
2023/09/18 07:21:04;;;;;;;59.53;27.55;;;;;;;16.20;100.00;92537.09;5078378;28;20044;-78
2023/09/18 07:23:30;;;;;;;49.33;27.85;;;;;;;16.34;100.00;92531.56;5078354;28;20048;-78
2023/09/18 07:25:57;;;;;;;65.10;32.97;;;;;;;16.30;100.00;92535.19;5079162;28;20040;-78
2023/09/18 07:28:24;;;;;;;84.50;34.83;;;;;;;16.24;100.00;92532.72;5076606;28;20472;-77
2023/09/18 07:30:50;;;;;;;69.03;32.70;;;;;;;16.27;100.00;92526.03;5069795;28;20044;-78
2023/09/18 07:33:17;;;;;;;64.57;32.60;;;;;;;16.28;100.00;92510.94;5058657;28;20341;-78
2023/09/18 07:35:48;;;;;;;76.10;38.08;;;;;;;16.29;100.00;92531.78;5057690;28;20048;-78
2023/09/18 07:38:14;;;;;;;76.35;35.55;;;;;;;16.34;100.00;92520.25;5059311;28;20081;-78
2023/09/18 07:40:39;;;;;;;70.25;34.15;;;;;;;16.37;100.00;92524.88;5058925;28;20048;-77
2023/09/18 07:43:05;;;;;;;83.35;37.03;;;;;;;16.45;100.00;92514.25;5058299;28;20040;-79
2023/09/18 07:45:31;;;;;;;83.38;39.25;;;;;;;16.46;100.00;92517.69;5058062;28;20468;-79
2023/09/18 07:47:56;;;;;;;75.05;35.83;;;;;;;16.47;100.00;92524.50;5059792;28;20017;-79
2023/09/18 07:50:22;;;;;;;77.72;34.55;;;;;;;16.49;100.00;92513.63;5056972;28;20066;-80
2023/09/18 07:52:47;;;;;;;71.95;36.00;;;;;;;16.48;100.00;92509.44;5056401;28;20037;-81
2023/09/18 07:55:13;;;;;;;72.63;35.60;;;;;;;16.46;100.00;92507.13;5058187;28;20037;-80
2023/09/18 07:57:40;;;;;;;79.78;35.67;;;;;;;16.42;100.00;92496.41;5056177;28;20039;-83
2023/09/18 08:00:11;;;;;;;78.28;36.58;;;;;;;16.35;100.00;92490.09;5057439;28;20082;-81
2023/09/18 08:02:40;;;;;;;76.72;37.20;;;;;;;16.46;100.00;92493.91;5074400;28;20432;-81
2023/09/18 08:05:05;;;;;;;80.57;36.97;;;;;;;16.41;100.00;92500.16;5054948;28;20029;-80
2023/09/18 08:07:31;;;;;;;74.32;36.45;;;;;;;16.48;100.00;92514.72;5055818;28;20032;-82
2023/09/18 08:09:57;;;;;;;511.48;33.78;;;;;;;16.42;100.00;92520.19;5062315;28;20532;-79
2023/09/18 08:12:23;;;;;;;16.17;8.32;;;;;;;16.30;100.00;92504.28;5054438;28;20095;-81
2023/09/18 08:14:50;;;;;;;14.40;7.68;;;;;;;16.23;100.00;92514.56;5053903;28;20571;-81
2023/09/18 08:17:16;;;;;;;15.02;7.22;;;;;;;16.21;100.00;92532.59;5055494;28;20029;-82
2023/09/18 08:19:44;;;;;;;11.63;4.97;;;;;;;16.21;100.00;92541.31;5054255;28;20063;-79
2023/09/18 08:22:11;;;;;;;7.90;4.40;;;;;;;16.31;100.00;92548.06;5063977;28;20033;-79
2023/09/18 08:24:37;;;;;;;11.80;6.03;;;;;;;16.26;100.00;92550.13;5060645;28;20031;-83
2023/09/18 08:27:03;;;;;;;15.73;5.50;;;;;;;16.47;100.00;92566.03;5060190;28;20060;-78
2023/09/18 08:29:29;;;;;;;12.27;5.40;;;;;;;16.35;100.00;92554.28;5061417;28;20503;-82
2023/09/18 08:31:54;;;;;;;11.95;7.00;;;;;;;16.37;100.00;92553.94;5061402;28;20044;-81
2023/09/18 08:34:20;;;;;;;15.60;7.35;;;;;;;16.34;100.00;92554.59;5061539;28;20037;-81
2023/09/18 08:36:45;;;;;;;24.48;12.98;;;;;;;16.38;100.00;92556.25;5062476;28;20083;-82
2023/09/18 08:39:11;;;;;;;26.65;13.05;;;;;;;16.47;100.00;92542.25;5062139;28;20032;-81
2023/09/18 08:41:43;;;;;;;17.83;8.82;;;;;;;16.51;100.00;92561.66;5060909;28;20029;-81
2023/09/18 08:44:09;;;;;;;15.07;8.68;;;;;;;16.41;100.00;92553.00;5060980;28;20032;-81
2023/09/18 08:46:37;;;;;;;11.75;7.30;;;;;;;16.37;100.00;92546.81;5058210;28;20116;-81
2023/09/18 08:49:04;;;;;;;15.05;6.75;;;;;;;16.37;100.00;92552.09;5062091;28;20033;-81
2023/09/18 08:51:30;;;;;;;16.35;8.07;;;;;;;16.39;100.00;92546.47;5061624;28;20056;-79
2023/09/18 08:53:56;;;;;;;16.70;8.48;;;;;;;16.39;100.00;92555.19;5061862;28;20035;-82
2023/09/18 08:56:23;;;;;;;17.08;8.85;;;;;;;16.39;100.00;92549.91;5067545;28;20060;-82
2023/09/18 08:58:49;;;;;;;15.77;8.65;;;;;;;16.38;100.00;92537.00;5064862;28;20037;-82
2023/09/18 09:01:14;;;;;;;17.10;8.85;;;;;;;16.39;100.00;92530.63;5065329;28;20033;-82
2023/09/18 09:03:47;;;;;;;17.00;9.55;;;;;;;16.38;100.00;92532.50;5061867;28;20100;-83
2023/09/18 09:06:13;;;;;;;20.00;9.48;;;;;;;16.41;100.00;92542.44;5062609;28;20071;-83
2023/09/18 09:08:39;;;;;;;17.30;9.50;;;;;;;16.40;100.00;92532.94;5061343;28;20025;-82
2023/09/18 09:11:05;;;;;;;24.58;12.88;;;;;;;16.42;100.00;92527.34;5058080;28;20094;-83
2023/09/18 09:13:31;;;;;;;23.77;12.43;;;;;;;16.40;100.00;92525.03;5075887;28;20029;-82
2023/09/18 09:15:58;;;;;;;22.33;12.23;;;;;;;16.48;100.00;92522.63;5062058;28;20044;-83
2023/09/18 09:18:28;;;;;;;20.75;11.55;;;;;;;16.79;100.00;92531.00;5061522;28;20476;-82
2023/09/18 09:20:59;;;;;;;23.52;11.80;;;;;;;16.61;100.00;92529.53;5064519;28;20036;-83
2023/09/18 09:23:29;;;;;;;20.27;11.07;;;;;;;16.65;100.00;92530.44;5063782;28;20037;-82
2023/09/18 09:26:15;;;;;;;27.52;14.40;;;;;;;16.51;100.00;92535.22;5064873;28;20576;-83
2023/09/18 09:28:43;;;;;;;25.27;12.60;;;;;;;16.48;100.00;92535.84;5057209;28;20044;-83
2023/09/18 09:31:10;;;;;;;25.50;13.05;;;;;;;16.43;100.00;92540.22;5068744;28;20025;-81
2023/09/18 09:33:38;;;;;;;25.55;11.15;;;;;;;16.42;100.00;92538.69;5069847;28;20039;-80
2023/09/18 09:36:07;;;;;;;19.35;8.80;;;;;;;16.38;100.00;92529.84;5062388;28;20025;-80
2023/09/18 09:38:34;;;;;;;17.77;10.25;;;;;;;16.37;100.00;92533.59;5060310;28;20048;-81
2023/09/18 09:41:01;;;;;;;27.08;14.50;;;;;;;16.43;100.00;92545.50;5057157;28;20067;-79
2023/09/18 09:43:32;;;;;;;27.75;16.45;;;;;;;16.47;100.00;92532.44;5059504;28;20388;-81
2023/09/18 09:45:59;;;;;;;39.90;20.30;;;;;;;16.54;100.00;92539.84;5061958;28;20021;-81
2023/09/18 09:48:25;;;;;;;48.25;27.00;;;;;;;16.60;100.00;92525.38;5059397;28;20036;-81
2023/09/18 09:50:51;;;;;;;54.92;31.02;;;;;;;16.61;100.00;92514.47;5060928;28;20032;-82
2023/09/18 09:53:18;;;;;;;55.22;28.52;;;;;;;16.67;100.00;92522.22;5058679;28;20013;-82
2023/09/18 09:55:44;;;;;;;57.78;31.98;;;;;;;16.60;100.00;92530.66;5060439;28;20094;-80
2023/09/18 09:58:11;;;;;;;55.40;29.23;;;;;;;16.63;100.00;92530.00;5054378;28;20535;-83
2023/09/18 10:00:49;;;;;;;57.10;32.35;;;;;;;16.67;100.00;92536.19;5050244;28;20106;-82
2023/09/18 10:03:17;;;;;;;52.67;30.88;;;;;;;16.78;100.00;92544.53;5056612;28;20455;-80
2023/09/18 10:05:46;;;;;;;49.35;26.13;;;;;;;16.74;100.00;92533.81;5057070;28;20158;-81
2023/09/18 10:08:12;;;;;;;56.10;30.42;;;;;;;16.77;100.00;92532.38;5056941;28;20033;-81
2023/09/18 10:10:42;;;;;;;46.60;27.27;;;;;;;16.88;100.00;92538.09;5054738;28;20116;-80
2023/09/18 10:13:49;;;;;;;54.55;31.17;;;;;;;16.85;100.00;92534.22;5053802;28;20084;-79
2023/09/18 10:16:21;;;;;;;54.33;30.42;;;;;;;16.80;100.00;92531.78;5017874;28;20396;-81
2023/09/18 10:18:56;;;;;;;56.50;31.60;;;;;;;16.83;100.00;92531.13;5060003;28;20032;-81
2023/09/18 10:22:05;;;;;;;48.60;27.83;;;;;;;16.85;100.00;92534.22;5054326;28;20040;-82
2023/09/18 10:24:39;;;;;;;54.10;28.25;;;;;;;16.76;100.00;92525.56;5056211;28;20102;-80
2023/09/18 10:27:06;;;;;;;50.35;28.73;;;;;;;16.81;100.00;92536.72;5054960;28;20037;-80
2023/09/18 10:29:36;;;;;;;40.53;23.88;;;;;;;16.75;100.00;92527.44;5057538;28;20400;-80
2023/09/18 10:32:07;;;;;;;30.05;17.73;;;;;;;16.72;100.00;92504.28;5060140;28;20029;-80
2023/09/18 10:34:34;;;;;;;30.17;17.73;;;;;;;16.69;100.00;92515.50;5076284;28;20045;-81
2023/09/18 10:37:02;;;;;;;32.13;19.90;;;;;;;16.68;100.00;92521.88;5061189;28;20334;-80
2023/09/18 10:39:29;;;;;;;15.95;9.73;;;;;;;16.66;100.00;92532.00;5060474;28;20062;-81
2023/09/18 10:42:01;;;;;;;17.65;11.60;;;;;;;16.70;100.00;92521.56;5062256;28;20086;-81
2023/09/18 10:44:28;;;;;;;21.95;14.73;;;;;;;16.72;100.00;92533.34;5061686;28;20040;-81
2023/09/18 10:46:55;;;;;;;25.70;16.77;;;;;;;16.72;100.00;92535.22;5060285;28;20025;-80
2023/09/18 10:49:21;;;;;;;34.08;20.65;;;;;;;16.77;100.00;92541.06;5055118;28;20515;-80
2023/09/18 10:51:48;;;;;;;38.40;21.65;;;;;;;16.82;100.00;92532.25;5062708;28;20056;-81
2023/09/18 10:54:20;;;;;;;48.25;25.75;;;;;;;16.75;100.00;92532.72;5071002;28;20282;-81
2023/09/18 10:56:47;;;;;;;39.17;23.30;;;;;;;16.75;100.00;92550.44;5066350;28;20284;-80
2023/09/18 10:59:15;;;;;;;50.58;28.83;;;;;;;16.81;100.00;92541.25;5061366;28;20045;-81
2023/09/18 11:01:41;;;;;;;42.13;27.02;;;;;;;16.88;100.00;92538.09;5060580;28;20435;-80
2023/09/18 11:04:09;;;;;;;49.72;27.00;;;;;;;16.88;100.00;92541.50;5059893;28;20039;-81
2023/09/18 11:06:54;;;;;;;50.75;29.13;;;;;;;16.96;100.00;92524.03;5057408;28;20033;-80
2023/09/18 11:09:23;;;;;;;47.85;26.33;;;;;;;17.10;100.00;92527.16;5059767;28;20120;-80
2023/09/18 11:12:09;;;;;;;53.75;29.65;;;;;;;17.05;100.00;92517.56;5059925;28;20452;-80
2023/09/18 11:14:49;;;;;;;43.05;24.23;;;;;;;17.32;100.00;92525.25;5061370;28;20037;-80